الصفحة الرئيسية
METAR-TAF:

METAR-TAF

مطار :

Limón, كوستاريكا

دائرة عرض: 10-00N, خط طول: 083-03W, ارتفاع: 5 متر

مراقبة الطقس الحالي

تاريخ ووقت الإصدار 3ساعات و 43 دقيقة قبل الساعة 00:00UTC
رياح هادئة
درجة الحرارة 25°درجة مئوية
الرطوبة 89%
ضغط 1011 hPa
الرؤية 10 كم أو أكثر
غيوم قليلة على ارتفاع 2000 قدم
غيوم متفرقة على ارتفاع 12000 قدم
غيوم مفككة على ارتفاع 23000 قدم

METAR: MRLM 230000Z 00000KT 9999 FEW020 SCT120 BKN230 25/23 A2986

زمن: 21:43 (03:43 UTC)

توقعات

تاريخ ووقت الإصدار 4ساعات و 43 دقيقة قبل الساعة 23:00UTC
التوقعات صالحة من23 الساعة 00 UTC إلى 23 الساعة 24 UTC
ريح 4 عقدة من الغرب/الجنوب الغربي
الرؤية 10 كم أو أكثر
غيوم قليلة على ارتفاع 3500 قدم
مؤقت
من 23 الساعة 00 UTC إلى 23 الساعة 02 UTC
ريح 8 عقدة من الشمال الشرقي
مؤقت
من 23 الساعة 10 UTC إلى 23 الساعة 16 UTC
ريح 4 عقدة من الغرب/الشمال الغربي
غيوم مفككة على ارتفاع 2000 قدم
مطر
أصبح
من 23 الساعة 16 UTC إلى 23 الساعة 18 UTC
ريح 5 عقدة من الشرق/الشمال الشرقي

TAF: MRLM 222300Z 2300/2324 24004KT 9999 FEW035 TX32/2320Z TN22/2310Z TEMPO 2300/2302 05008KT TEMPO 2310/2316 30004KT RA BKN020 BECMG 2316/2318 06005KT

أرصاد الطقس والتوقعات من أكثر من 4000 مطار (تقارير الطقس للمطار METAR والتنبؤ بالطقس بالمطارTAF).

المحطات المتاحة هي النقط الصفراء والحمراء على الخريطة.

حرك المؤشر فوق النقطة لمعرفة اسم المحطة.

ثم انقر لمعرفة أرصاد وتوقعات الطقس.

لتغيير الخارطة: اضغط على الأزرار الخضراء مع رمز الصليب الأسود للتكبير. على الزر الأخضر مع شرطة للتصغير، أو على الأسهم الخضراء للخرائط المجاورة.


METAR-TAF: